Terminal Aerodrome Forecast
Issued by NWS

Home | Current Version | Previous Version | Text Only | Print | Product List | Glossary Off
Versions: 1 2 3 4 5 6 7 8 9 10 11 12 13 14

000
FTUS43 KMPX 141159 CCA
TAFRNH
TAF COR
KRNH 141159Z 1412/1512 15006KT P6SM BKN040
     FM141600 17009KT 4SM -SHSN BKN025 OVC035
     FM142100 17008KT 3/4SM -SN BR VV006
     FM150400 VRB04KT 3SM -SHSN OVC015
     FM150800 33010KT P6SM OVC015=

USA.gov is the U.S. government's official web portal to all federal, state and local government web resources and services.